sensor_id;sensor_type;location;lat;lon;timestamp;pressure;altitude;pressure_sealevel;temperature
69857;BMP280;57147;53.582;10.112;2023-11-18T00:03:33;102121.81;;;4.54
69857;BMP280;57147;53.582;10.112;2023-11-18T00:08:36;102117.78;;;4.52
69857;BMP280;57147;53.582;10.112;2023-11-18T00:13:37;102115.97;;;4.52
69857;BMP280;57147;53.582;10.112;2023-11-18T00:18:38;102102.38;;;4.55
69857;BMP280;57147;53.582;10.112;2023-11-18T00:23:41;102099.22;;;4.72
69857;BMP280;57147;53.582;10.112;2023-11-18T00:28:42;102111.03;;;4.87
69857;BMP280;57147;53.582;10.112;2023-11-18T00:33:42;102095.13;;;4.82
69857;BMP280;57147;53.582;10.112;2023-11-18T00:38:45;102104.09;;;4.93
69857;BMP280;57147;53.582;10.112;2023-11-18T00:43:46;102103.22;;;4.99
69857;BMP280;57147;53.582;10.112;2023-11-18T00:48:47;102117.41;;;4.98
69857;BMP280;57147;53.582;10.112;2023-11-18T00:53:50;102124.88;;;5.01
69857;BMP280;57147;53.582;10.112;2023-11-18T00:58:50;102130.75;;;5.03
69857;BMP280;57147;53.582;10.112;2023-11-18T01:03:51;102127.09;;;5.04
69857;BMP280;57147;53.582;10.112;2023-11-18T01:08:54;102118.59;;;5.02
69857;BMP280;57147;53.582;10.112;2023-11-18T01:13:55;102126.72;;;5.00
69857;BMP280;57147;53.582;10.112;2023-11-18T01:18:56;102124.63;;;5.09
69857;BMP280;57147;53.582;10.112;2023-11-18T01:23:59;102125.66;;;5.08
69857;BMP280;57147;53.582;10.112;2023-11-18T01:28:59;102129.44;;;5.12
69857;BMP280;57147;53.582;10.112;2023-11-18T01:34:00;102130.63;;;5.16
69857;BMP280;57147;53.582;10.112;2023-11-18T01:39:03;102129.44;;;5.12
69857;BMP280;57147;53.582;10.112;2023-11-18T01:44:04;102127.81;;;5.11
69857;BMP280;57147;53.582;10.112;2023-11-18T01:49:05;102127.81;;;5.11
69857;BMP280;57147;53.582;10.112;2023-11-18T01:54:09;102109.31;;;4.99
69857;BMP280;57147;53.582;10.112;2023-11-18T01:59:10;102126.16;;;5.17
69857;BMP280;57147;53.582;10.112;2023-11-18T02:04:10;102139.28;;;5.23
69857;BMP280;57147;53.582;10.112;2023-11-18T02:09:14;102141.94;;;5.23
69857;BMP280;57147;53.582;10.112;2023-11-18T02:14:15;102142.34;;;5.20
69857;BMP280;57147;53.582;10.112;2023-11-18T02:19:19;102140.75;;;5.19
69857;BMP280;57147;53.582;10.112;2023-11-18T02:24:31;102134.88;;;5.17
69857;BMP280;57147;53.582;10.112;2023-11-18T02:29:36;102147.19;;;5.23
69857;BMP280;57147;53.582;10.112;2023-11-18T02:34:42;102160.19;;;5.18
69857;BMP280;57147;53.582;10.112;2023-11-18T02:39:47;102162.00;;;5.18
69857;BMP280;57147;53.582;10.112;2023-11-18T02:44:55;102154.91;;;5.18
69857;BMP280;57147;53.582;10.112;2023-11-18T02:49:57;102170.66;;;5.25
69857;BMP280;57147;53.582;10.112;2023-11-18T02:54:58;102162.19;;;5.23
69857;BMP280;57147;53.582;10.112;2023-11-18T03:00:01;102169.06;;;5.24
69857;BMP280;57147;53.582;10.112;2023-11-18T03:05:02;102170.59;;;5.31
69857;BMP280;57147;53.582;10.112;2023-11-18T03:10:03;102175.88;;;5.31
69857;BMP280;57147;53.582;10.112;2023-11-18T03:15:07;102170.41;;;5.33
69857;BMP280;57147;53.582;10.112;2023-11-18T03:20:09;102168.34;;;5.35
69857;BMP280;57147;53.582;10.112;2023-11-18T03:25:10;102161.25;;;5.35
69857;BMP280;57147;53.582;10.112;2023-11-18T03:30:14;102161.25;;;5.35
69857;BMP280;57147;53.582;10.112;2023-11-18T03:35:14;102159.19;;;5.37
69857;BMP280;57147;53.582;10.112;2023-11-18T03:40:15;102158.84;;;5.34
69857;BMP280;57147;53.582;10.112;2023-11-18T03:45:18;102158.97;;;5.39
69857;BMP280;57147;53.582;10.112;2023-11-18T03:50:19;102166.44;;;5.42
69857;BMP280;57147;53.582;10.112;2023-11-18T03:55:19;102172.09;;;5.46
69857;BMP280;57147;53.582;10.112;2023-11-18T04:00:23;102179.78;;;5.47
69857;BMP280;57147;53.582;10.112;2023-11-18T04:05:24;102179.41;;;5.44
69857;BMP280;57147;53.582;10.112;2023-11-18T04:10:24;102171.78;;;5.35
69857;BMP280;57147;53.582;10.112;2023-11-18T04:15:27;102176.59;;;5.38
69857;BMP280;57147;53.582;10.112;2023-11-18T04:20:28;102172.16;;;5.39
69857;BMP280;57147;53.582;10.112;2023-11-18T04:25:28;102177.78;;;5.43
69857;BMP280;57147;53.582;10.112;2023-11-18T04:30:32;102164.47;;;5.37
69857;BMP280;57147;53.582;10.112;2023-11-18T04:35:32;102176.59;;;5.38
69857;BMP280;57147;53.582;10.112;2023-11-18T04:40:33;102169.31;;;5.41
69857;BMP280;57147;53.582;10.112;2023-11-18T04:45:36;102174.56;;;5.41
69857;BMP280;57147;53.582;10.112;2023-11-18T04:50:39;102172.38;;;5.37
69857;BMP280;57147;53.582;10.112;2023-11-18T04:55:39;102172.59;;;5.36
69857;BMP280;57147;53.582;10.112;2023-11-18T05:00:43;102181.88;;;5.38
69857;BMP280;57147;53.582;10.112;2023-11-18T05:05:43;102172.16;;;5.39
69857;BMP280;57147;53.582;10.112;2023-11-18T05:10:46;102150.78;;;5.29
69857;BMP280;57147;53.582;10.112;2023-11-18T05:15:49;102168.16;;;5.36
69857;BMP280;57147;53.582;10.112;2023-11-18T05:20:50;102155.91;;;5.42
69857;BMP280;57147;53.582;10.112;2023-11-18T05:25:51;102149.47;;;5.38
69857;BMP280;57147;53.582;10.112;2023-11-18T05:30:54;102142.66;;;5.30
69857;BMP280;57147;53.582;10.112;2023-11-18T05:35:55;102138.41;;;5.29
69857;BMP280;57147;53.582;10.112;2023-11-18T05:40:56;102132.56;;;5.27
69857;BMP280;57147;53.582;10.112;2023-11-18T05:45:59;102135.03;;;5.22
69857;BMP280;57147;53.582;10.112;2023-11-18T05:51:00;102134.66;;;5.19
69857;BMP280;57147;53.582;10.112;2023-11-18T05:56:00;102129.41;;;5.19
69857;BMP280;57147;53.582;10.112;2023-11-18T06:01:04;102115.59;;;5.23
69857;BMP280;57147;53.582;10.112;2023-11-18T06:06:06;102113.00;;;5.17
69857;BMP280;57147;53.582;10.112;2023-11-18T06:11:07;102117.28;;;5.11
69857;BMP280;57147;53.582;10.112;2023-11-18T06:16:12;102120.97;;;5.10
69857;BMP280;57147;53.582;10.112;2023-11-18T06:21:13;102132.84;;;5.19
69857;BMP280;57147;53.582;10.112;2023-11-18T06:26:15;102126.59;;;5.14
69857;BMP280;57147;53.582;10.112;2023-11-18T06:31:18;102120.97;;;5.10
69857;BMP280;57147;53.582;10.112;2023-11-18T06:36:19;102117.88;;;5.13
69857;BMP280;57147;53.582;10.112;2023-11-18T06:41:21;102117.38;;;5.05
69857;BMP280;57147;53.582;10.112;2023-11-18T06:46:26;102118.22;;;4.98
69857;BMP280;57147;53.582;10.112;2023-11-18T06:51:27;102118.28;;;4.92
69857;BMP280;57147;53.582;10.112;2023-11-18T06:56:28;102132.88;;;4.88
69857;BMP280;57147;53.582;10.112;2023-11-18T07:01:31;102131.72;;;4.84
69857;BMP280;57147;53.582;10.112;2023-11-18T07:06:32;102142.91;;;4.79
69857;BMP280;57147;53.582;10.112;2023-11-18T07:11:32;102153.25;;;4.74
69857;BMP280;57147;53.582;10.112;2023-11-18T07:16:37;102171.25;;;4.77
69857;BMP280;57147;53.582;10.112;2023-11-18T07:21:40;102181.56;;;4.79
69857;BMP280;57147;53.582;10.112;2023-11-18T07:26:41;102193.34;;;4.70
69857;BMP280;57147;53.582;10.112;2023-11-18T07:31:44;102176.41;;;4.65
69857;BMP280;57147;53.582;10.112;2023-11-18T07:36:45;102167.91;;;4.63
69857;BMP280;57147;53.582;10.112;2023-11-18T07:41:46;102153.13;;;4.62
69857;BMP280;57147;53.582;10.112;2023-11-18T07:46:49;102165.28;;;4.63
69857;BMP280;57147;53.582;10.112;2023-11-18T07:51:49;102178.44;;;4.63
69857;BMP280;57147;53.582;10.112;2023-11-18T07:56:50;102178.44;;;4.63
69857;BMP280;57147;53.582;10.112;2023-11-18T08:01:53;102178.84;;;4.60
69857;BMP280;57147;53.582;10.112;2023-11-18T08:06:54;102179.84;;;4.59
69857;BMP280;57147;53.582;10.112;2023-11-18T08:11:54;102175.19;;;4.61
69857;BMP280;57147;53.582;10.112;2023-11-18T08:16:58;102179.63;;;4.68
69857;BMP280;57147;53.582;10.112;2023-11-18T08:21:59;102193.81;;;4.67
69857;BMP280;57147;53.582;10.112;2023-11-18T08:26:59;102185.66;;;4.75
69857;BMP280;57147;53.582;10.112;2023-11-18T08:32:03;102150.59;;;4.49
69857;BMP280;57147;53.582;10.112;2023-11-18T08:37:04;102177.06;;;4.86
69857;BMP280;57147;53.582;10.112;2023-11-18T08:42:04;102159.22;;;4.88
69857;BMP280;57147;53.582;10.112;2023-11-18T08:47:08;102176.59;;;4.89
69857;BMP280;57147;53.582;10.112;2023-11-18T08:52:08;102164.47;;;4.88
69857;BMP280;57147;53.582;10.112;2023-11-18T08:57:09;102163.19;;;4.97
69857;BMP280;57147;53.582;10.112;2023-11-18T09:02:12;102169.81;;;5.06
69857;BMP280;57147;53.582;10.112;2023-11-18T09:07:13;102159.00;;;5.14
69857;BMP280;57147;53.582;10.112;2023-11-18T09:12:13;102174.38;;;5.17
69857;BMP280;57147;53.582;10.112;2023-11-18T09:17:16;102147.03;;;5.18
69857;BMP280;57147;53.582;10.112;2023-11-18T09:22:19;102164.16;;;5.27
69857;BMP280;57147;53.582;10.112;2023-11-18T09:27:19;102149.75;;;5.30
69857;BMP280;57147;53.582;10.112;2023-11-18T09:32:26;102140.09;;;5.24
69857;BMP280;57147;53.582;10.112;2023-11-18T09:37:27;102125.84;;;5.31
69857;BMP280;57147;53.582;10.112;2023-11-18T09:42:28;102132.84;;;5.37
69857;BMP280;57147;53.582;10.112;2023-11-18T09:47:33;102159.56;;;5.41
69857;BMP280;57147;53.582;10.112;2023-11-18T09:52:41;102141.22;;;5.53
69857;BMP280;57147;53.582;10.112;2023-11-18T09:57:44;102141.53;;;5.63
69857;BMP280;57147;53.582;10.112;2023-11-18T10:02:47;102143.66;;;5.72
69857;BMP280;57147;53.582;10.112;2023-11-18T10:07:49;102158.28;;;5.87
69857;BMP280;57147;53.582;10.112;2023-11-18T10:12:51;102155.53;;;5.93
69857;BMP280;57147;53.582;10.112;2023-11-18T10:17:54;102153.63;;;6.00
69857;BMP280;57147;53.582;10.112;2023-11-18T10:23:05;102168.13;;;6.09
69857;BMP280;57147;53.582;10.112;2023-11-18T10:28:06;102160.94;;;6.17
69857;BMP280;57147;53.582;10.112;2023-11-18T10:33:10;102145.84;;;6.24
